Burgos, Burgos Airport (LEBG)

NameBurgos Airport
CityBurgos
CountrySpain
ICAOLEBG
IATARGS
Altitude903 m
CoordinatesGoogle Map
Live Air TrafficLiveATC.net
METARLEBG 230800Z 03004KT 350V070 CAVOK 17/09 Q1023
2019-08-23 08:00:00 Wind: North-Northeast (30°) 2.06 m/s - Visibility: > 10000 m - Weather: CAVOK - Temperature: 17 °C - Dew point: 9 °C - Humidity: 59.5% - Pressure: 1023 hPa

Sorry, no flights used the airport in this database.